Equality, Alabama
Current Conditions -  °F | °C
As of 12:15 AM on Monday 22 Dec 2014 (Local Time) from KALX Reporting Station
Haze Haze  
Wind Chill: 52°   Ceiling: 300
Heat Index: 52°   Visibility: 2.5mi
Dew Point: 48°   Wind: 3mph
Humidity: 86%   Direction: 90°E
Pressure: 30.03"   Gusts: NA
Location:  32.76°N, 86.1°W
Report Text: KALX 220615Z AUTO 09003KT 2 1/2SM BR OVC003 11/09 A3003 RMK AO2 T01100087
Loading
Personal Weather Stations






























Interactive Weather Map New forecast layout! Learn more

10-Day Weather Forecast

Advertisements
Track Severe Weather on mobile